Time;durP1;ratioP1;P1;durP2;ratioP2;P2;SDS_P1;SDS_P2;PMS_P1;PMS_P2;Temp;Humidity;BMP_temperature;BMP_pressure;BME280_temperature;BME280_humidity;BME280_pressure;Samples;Min_cycle;Max_cycle;Signal;HPM_P1;HPM_P2
2023/05/03 00:00:12;;;;;;;1999.90;999.90;;;7.40;99.90;;;;;;6733251;88;20661;-76
2023/05/03 00:10:15;;;;;;;1999.90;999.90;;;7.30;99.90;;;;;;6736808;88;20239;-75
2023/05/03 00:20:18;;;;;;;1999.90;999.90;;;7.00;99.90;;;;;;6735276;88;20184;-76
2023/05/03 00:30:18;;;;;;;1999.90;999.90;;;7.00;99.90;;;;;;6732890;88;20264;-75
2023/05/03 00:40:19;;;;;;;1999.90;999.90;;;6.90;99.90;;;;;;6732522;88;20198;-76
2023/05/03 00:50:20;;;;;;;1999.90;999.90;;;6.70;99.90;;;;;;6735634;88;20233;-76
2023/05/03 01:00:21;;;;;;;1999.90;999.90;;;6.70;99.90;;;;;;6741761;88;20212;-76
2023/05/03 01:10:54;;;;;;;1999.90;999.90;;;6.60;99.90;;;;;;6733833;88;20198;-75
2023/05/03 01:20:58;;;;;;;1999.90;999.90;;;6.60;99.90;;;;;;6734195;88;20181;-76
2023/05/03 01:30:58;;;;;;;1999.90;999.90;;;6.40;99.90;;;;;;6728124;88;20236;-75
2023/05/03 01:41:04;;;;;;;1999.90;999.90;;;6.30;99.90;;;;;;6734704;88;20173;-76
2023/05/03 01:51:04;;;;;;;1999.90;999.90;;;6.20;99.90;;;;;;6737370;88;21012;-76
2023/05/03 02:01:06;;;;;;;1999.90;999.90;;;6.10;99.90;;;;;;6734713;88;20254;-75
2023/05/03 02:11:06;;;;;;;1999.90;999.90;;;5.70;99.90;;;;;;6735471;88;20207;-76
2023/05/03 02:21:08;;;;;;;1999.90;999.90;;;5.60;99.90;;;;;;6735136;88;20205;-76
2023/05/03 02:31:09;;;;;;;1999.90;999.90;;;5.30;99.90;;;;;;6737675;88;20189;-76
2023/05/03 02:41:10;;;;;;;1999.90;999.90;;;5.10;99.90;;;;;;6735978;88;20273;-75
2023/05/03 02:51:10;;;;;;;1999.90;999.90;;;5.20;99.90;;;;;;6732285;88;21051;-76
2023/05/03 03:01:11;;;;;;;1999.90;999.90;;;5.00;99.90;;;;;;6730765;88;20681;-76
2023/05/03 03:11:11;;;;;;;1999.90;999.90;;;5.10;99.90;;;;;;6733980;88;20224;-76
2023/05/03 03:21:12;;;;;;;1999.90;999.90;;;5.00;99.90;;;;;;6737205;88;20211;-76
2023/05/03 03:31:12;;;;;;;1999.90;999.90;;;4.90;99.90;;;;;;6736749;88;20331;-76
2023/05/03 03:41:13;;;;;;;1999.90;999.90;;;4.90;99.90;;;;;;6731448;88;20323;-76
2023/05/03 03:51:14;;;;;;;1999.90;999.90;;;4.70;99.90;;;;;;6732561;88;20178;-76
2023/05/03 04:01:14;;;;;;;1999.90;999.90;;;4.50;99.90;;;;;;6735362;88;20357;-76
2023/05/03 04:11:15;;;;;;;1999.90;999.90;;;4.40;99.90;;;;;;6736054;88;20318;-76
2023/05/03 04:21:15;;;;;;;1999.90;999.90;;;4.30;99.90;;;;;;6737906;88;20616;-76
2023/05/03 04:31:18;;;;;;;1999.90;999.90;;;4.30;99.90;;;;;;6734889;88;20338;-75
2023/05/03 04:41:19;;;;;;;1999.90;999.90;;;4.30;99.90;;;;;;6734257;88;20226;-75
2023/05/03 04:51:20;;;;;;;1999.90;999.90;;;4.20;99.90;;;;;;6737574;88;20185;-76
2023/05/03 05:01:25;;;;;;;1999.90;999.90;;;4.10;99.90;;;;;;6740511;88;21039;-75
2023/05/03 05:11:26;;;;;;;1999.90;999.90;;;4.20;99.90;;;;;;6738482;88;20577;-77
2023/05/03 05:21:27;;;;;;;1999.90;999.90;;;4.50;99.90;;;;;;6735177;88;20198;-77
2023/05/03 05:31:28;;;;;;;1999.90;999.90;;;4.70;99.90;;;;;;6735856;88;20267;-77
2023/05/03 05:41:28;;;;;;;1999.90;999.90;;;4.90;99.90;;;;;;6737447;88;20232;-77
2023/05/03 05:51:30;;;;;;;1999.90;999.90;;;5.20;99.90;;;;;;6738723;88;20195;-77
2023/05/03 06:01:32;;;;;;;1999.90;999.90;;;5.80;99.90;;;;;;6742525;88;20316;-77
2023/05/03 06:11:34;;;;;;;1999.90;999.90;;;6.60;99.90;;;;;;6732963;88;20223;-77
2023/05/03 06:21:34;;;;;;;1999.90;999.90;;;7.10;99.90;;;;;;6732199;88;20242;-76
2023/05/03 06:31:35;;;;;;;1999.90;999.90;;;7.40;99.90;;;;;;6729551;88;20189;-77
2023/05/03 06:41:36;;;;;;;1999.90;999.90;;;8.50;99.90;;;;;;6733734;88;20198;-76
2023/05/03 06:51:36;;;;;;;1999.90;999.90;;;8.60;99.90;;;;;;6731870;88;20181;-77
2023/05/03 07:01:37;;;;;;;1999.90;999.90;;;8.90;99.90;;;;;;6731974;88;20530;-77
2023/05/03 07:11:43;;;;;;;1999.90;999.90;;;9.30;99.90;;;;;;6729345;88;20246;-76
2023/05/03 07:21:43;;;;;;;1999.90;999.90;;;10.10;99.90;;;;;;6731743;88;20202;-76
2023/05/03 07:31:44;;;;;;;1999.90;999.90;;;10.50;99.90;;;;;;6729626;88;20189;-76
2023/05/03 07:41:45;;;;;;;1999.90;999.90;;;11.40;99.90;;;;;;6730908;88;20202;-76
2023/05/03 07:51:46;;;;;;;1999.90;999.90;;;11.50;99.90;;;;;;6740474;88;20192;-75
2023/05/03 08:01:46;;;;;;;1999.90;999.90;;;12.30;99.90;;;;;;6729113;88;20205;-76
2023/05/03 08:11:47;;;;;;;1999.90;999.90;;;12.80;99.90;;;;;;6729826;88;20197;-76
2023/05/03 08:21:48;;;;;;;1999.90;999.90;;;13.30;99.90;;;;;;6738512;88;20285;-76
2023/05/03 08:31:48;;;;;;;1999.90;999.90;;;14.00;99.90;;;;;;6730622;88;20189;-76
2023/05/03 08:41:49;;;;;;;1999.90;999.90;;;14.10;99.40;;;;;;6732844;88;20204;-76
2023/05/03 08:51:51;;;;;;;1999.90;999.90;;;14.70;98.90;;;;;;6734841;88;20248;-75
2023/05/03 09:01:52;;;;;;;1999.90;999.90;;;15.60;96.90;;;;;;6735619;88;20347;-76
2023/05/03 09:11:52;;;;;;;1999.90;999.90;;;15.50;97.20;;;;;;6731801;88;20259;-76
2023/05/03 09:22:05;;;;;;;1999.90;999.90;;;16.20;95.00;;;;;;6737835;88;20199;-76
2023/05/03 09:32:07;;;;;;;1999.90;999.90;;;16.80;95.40;;;;;;6745329;88;20215;-78
2023/05/03 09:42:17;;;;;;;1999.90;999.90;;;16.80;94.50;;;;;;6734321;88;20176;-78
2023/05/03 09:52:20;;;;;;;1999.90;999.90;;;17.80;93.30;;;;;;6727419;88;20303;-76
2023/05/03 10:02:21;;;;;;;1999.90;999.90;;;17.80;92.90;;;;;;6734591;88;20674;-76
2023/05/03 10:12:22;;;;;;;1999.90;999.90;;;17.80;92.30;;;;;;6728936;88;20286;-76
2023/05/03 10:22:22;;;;;;;1999.90;999.90;;;17.70;92.20;;;;;;6730885;88;20182;-76
2023/05/03 10:32:38;;;;;;;1999.90;999.90;;;18.00;92.60;;;;;;6729598;88;20307;-77
2023/05/03 10:42:54;;;;;;;1999.90;999.90;;;19.80;91.50;;;;;;6729771;88;20700;-76
2023/05/03 10:52:54;;;;;;;1999.90;999.90;;;18.60;90.90;;;;;;6723961;88;20262;-77
2023/05/03 11:03:29;;;;;;;1999.90;999.90;;;19.50;91.60;;;;;;6729704;88;20222;-76
2023/05/03 11:13:30;;;;;;;1999.90;999.90;;;19.20;89.30;;;;;;6731133;88;20181;-77
2023/05/03 11:23:30;;;;;;;1999.90;999.90;;;20.40;89.30;;;;;;6733616;88;20222;-76
2023/05/03 11:33:33;;;;;;;1999.90;999.90;;;20.10;88.90;;;;;;6736013;88;20173;-77
2023/05/03 11:43:43;;;;;;;1999.90;999.90;;;22.00;87.60;;;;;;6730643;88;21095;-77
2023/05/03 11:53:44;;;;;;;1999.90;999.90;;;22.10;86.50;;;;;;6726274;88;20407;-77
2023/05/03 12:03:48;;;;;;;1999.90;999.90;;;22.40;84.70;;;;;;6731396;88;20248;-76
2023/05/03 12:13:57;;;;;;;1999.90;999.90;;;22.70;83.00;;;;;;6731204;88;20538;-76
2023/05/03 12:23:57;;;;;;;1999.90;999.90;;;22.20;82.70;;;;;;6733469;88;20189;-76
2023/05/03 12:33:58;;;;;;;1999.90;999.90;;;22.20;80.30;;;;;;6733797;88;20218;-76
2023/05/03 12:44:00;;;;;;;1999.90;999.90;;;22.90;79.30;;;;;;6736041;88;20233;-77
2023/05/03 12:54:02;;;;;;;1999.90;999.90;;;23.70;78.60;;;;;;6734188;88;20342;-76
2023/05/03 13:04:02;;;;;;;1999.90;999.90;;;23.10;77.20;;;;;;6732458;88;20635;-76
2023/05/03 13:14:03;;;;;;;1999.90;999.90;;;22.90;77.60;;;;;;6741202;88;20207;-77
2023/05/03 13:24:04;;;;;;;1999.90;999.90;;;23.90;75.10;;;;;;6741337;88;20184;-77
2023/05/03 13:34:05;;;;;;;1999.90;999.90;;;23.80;73.40;;;;;;6734275;88;20219;-76
2023/05/03 13:44:08;;;;;;;1999.90;999.90;;;23.20;73.60;;;;;;6733314;88;20204;-76
2023/05/03 13:54:08;;;;;;;1999.90;999.90;;;22.80;73.60;;;;;;6733827;88;20210;-76
2023/05/03 14:04:09;;;;;;;1999.90;999.90;;;23.60;73.90;;;;;;6732701;88;20230;-78
2023/05/03 14:14:10;;;;;;;1999.90;999.90;;;24.10;73.00;;;;;;6731581;88;20188;-77
2023/05/03 14:24:11;;;;;;;1999.90;999.90;;;23.50;70.10;;;;;;6730911;88;20255;-77
2023/05/03 14:34:11;;;;;;;1999.90;999.90;;;23.70;69.30;;;;;;6730354;88;20229;-77
2023/05/03 14:44:12;;;;;;;1999.90;999.90;;;23.90;70.30;;;;;;6735266;88;20185;-77
2023/05/03 14:54:13;;;;;;;1999.90;999.90;;;24.30;68.60;;;;;;6732748;88;20212;-77
2023/05/03 15:04:13;;;;;;;1999.90;999.90;;;23.90;67.90;;;;;;6728304;88;20659;-77
2023/05/03 15:14:16;;;;;;;1999.90;999.90;;;23.90;68.70;;;;;;6731441;88;20211;-76
2023/05/03 15:24:17;;;;;;;1999.90;999.90;;;23.60;68.90;;;;;;6731977;88;20185;-76
2023/05/03 15:34:17;;;;;;;1999.90;999.90;;;23.20;68.50;;;;;;6730064;88;20690;-76
2023/05/03 15:54:21;;;;;;;1999.90;999.90;;;22.80;68.80;;;;;;6631012;88;20256;-79
2023/05/03 16:04:22;;;;;;;1999.90;999.90;;;22.20;68.40;;;;;;6698991;88;20206;-78
2023/05/03 16:14:23;;;;;;;1999.90;999.90;;;22.50;68.20;;;;;;6701796;88;20338;-77
2023/05/03 16:24:24;;;;;;;1999.90;999.90;;;22.80;67.20;;;;;;6706674;88;20530;-79
2023/05/03 16:34:25;;;;;;;1999.90;999.90;;;22.80;67.80;;;;;;6701990;88;20187;-78
2023/05/03 16:44:26;;;;;;;1999.90;999.90;;;22.60;67.90;;;;;;6698125;88;20676;-80
2023/05/03 16:54:27;;;;;;;1999.90;999.90;;;22.20;69.00;;;;;;6705334;88;20193;-80
2023/05/03 17:04:28;;;;;;;1999.90;999.90;;;22.00;69.90;;;;;;6695651;88;20245;-80
2023/05/03 17:14:28;;;;;;;1999.90;999.90;;;21.80;69.90;;;;;;6714730;88;20754;-79
2023/05/03 17:24:29;;;;;;;1999.90;999.90;;;22.10;69.00;;;;;;6701396;88;20372;-79
2023/05/03 17:34:30;;;;;;;1999.90;999.90;;;22.90;66.90;;;;;;6697788;88;20215;-80
2023/05/03 17:44:30;;;;;;;1999.90;999.90;;;23.10;67.60;;;;;;6700404;88;20331;-79
2023/05/03 17:54:31;;;;;;;1999.90;999.90;;;22.10;67.60;;;;;;6709859;88;20210;-80
2023/05/03 18:04:31;;;;;;;1999.90;999.90;;;21.10;69.00;;;;;;6708338;88;20624;-79
2023/05/03 18:14:38;;;;;;;1999.90;999.90;;;20.40;69.30;;;;;;6698866;88;20312;-80
2023/05/03 18:24:38;;;;;;;1999.90;999.90;;;19.80;69.50;;;;;;6702875;88;20186;-80
2023/05/03 18:34:39;;;;;;;1999.90;999.90;;;19.30;70.70;;;;;;6708021;88;20202;-79
2023/05/03 18:44:39;;;;;;;1999.90;999.90;;;19.00;69.00;;;;;;6713262;88;20335;-80
2023/05/03 18:54:43;;;;;;;1999.90;999.90;;;18.70;70.20;;;;;;6713330;88;20186;-81
2023/05/03 19:04:44;;;;;;;1999.90;999.90;;;17.90;71.30;;;;;;6708912;88;20318;-80
2023/05/03 19:14:45;;;;;;;1999.90;999.90;;;17.40;73.00;;;;;;6704956;88;20222;-79
2023/05/03 19:24:46;;;;;;;1999.90;999.90;;;16.90;75.00;;;;;;6689669;88;20182;-79
2023/05/03 19:34:47;;;;;;;1999.90;999.90;;;16.60;76.30;;;;;;6688879;88;20244;-78
2023/05/03 19:44:47;;;;;;;1999.90;999.90;;;16.20;78.40;;;;;;6693556;88;20228;-78
2023/05/03 19:54:48;;;;;;;1999.90;999.90;;;15.70;79.60;;;;;;6688495;89;20692;-79
2023/05/03 20:04:48;;;;;;;1999.90;999.90;;;15.40;80.90;;;;;;6698658;88;20589;-80
2023/05/03 20:14:49;;;;;;;1999.90;999.90;;;15.30;80.90;;;;;;6707804;88;20815;-79
2023/05/03 20:24:50;;;;;;;1999.90;999.90;;;15.00;81.50;;;;;;6710328;88;20231;-80
2023/05/03 20:34:50;;;;;;;1999.90;999.90;;;15.00;81.80;;;;;;6707423;88;20350;-82
2023/05/03 20:44:51;;;;;;;1999.90;999.90;;;14.80;82.40;;;;;;6708363;88;20241;-80
2023/05/03 20:54:52;;;;;;;1999.90;999.90;;;14.60;82.70;;;;;;6708192;88;20178;-80
2023/05/03 21:04:53;;;;;;;1999.90;999.90;;;14.40;84.10;;;;;;6711482;88;20788;-80
2023/05/03 21:14:53;;;;;;;1999.90;999.90;;;14.20;85.60;;;;;;6712217;88;20208;-80
2023/05/03 21:24:54;;;;;;;1999.90;999.90;;;13.90;86.60;;;;;;6697638;88;20199;-79
2023/05/03 21:34:55;;;;;;;1999.90;999.90;;;13.80;88.00;;;;;;6696435;88;20523;-79
2023/05/03 21:44:56;;;;;;;1999.90;999.90;;;13.30;90.40;;;;;;6704162;76;20354;-75
2023/05/03 21:54:58;;;;;;;1999.90;999.90;;;13.00;91.20;;;;;;6723573;88;20218;-75
2023/05/03 22:04:58;;;;;;;1999.90;999.90;;;12.60;92.20;;;;;;6723850;88;20982;-76
2023/05/03 22:14:59;;;;;;;1999.90;999.90;;;12.50;93.10;;;;;;6724318;88;20214;-75
2023/05/03 22:24:59;;;;;;;1999.90;999.90;;;12.30;93.30;;;;;;6728370;88;20571;-76
2023/05/03 22:35:00;;;;;;;1999.90;999.90;;;12.00;94.90;;;;;;6726149;88;20260;-76
2023/05/03 22:45:00;;;;;;;1999.90;999.90;;;11.80;95.80;;;;;;6730201;88;20203;-76
2023/05/03 22:55:02;;;;;;;1999.90;999.90;;;11.60;97.50;;;;;;6729817;88;20189;-75
2023/05/03 23:05:03;;;;;;;1999.90;999.90;;;11.50;98.90;;;;;;6724800;88;20185;-76
2023/05/03 23:15:04;;;;;;;1999.90;999.90;;;11.20;99.90;;;;;;6729506;88;20210;-76
2023/05/03 23:25:06;;;;;;;1999.90;999.90;;;11.10;99.90;;;;;;6722962;88;20188;-76
2023/05/03 23:35:07;;;;;;;1999.90;999.90;;;10.90;99.90;;;;;;6749546;88;20185;-76
2023/05/03 23:45:08;;;;;;;1999.90;999.90;;;10.80;99.90;;;;;;6728124;88;20176;-75
2023/05/03 23:55:09;;;;;;;1999.90;999.90;;;10.60;99.90;;;;;;6721045;88;20178;-77
